Time;durP1;ratioP1;P1;durP2;ratioP2;P2;SDS_P1;SDS_P2;PMS_P1;PMS_P2;Temp;Humidity;BMP_temperature;BMP_pressure;BME280_temperature;BME280_humidity;BME280_pressure;Samples;Min_cycle;Max_cycle;Signal;HPM_P1;HPM_P2
2022/09/14 00:00:49;;;;;;;32.55;17.98;;;;;;;-145.01;100.00;64805.59;5050759;28;20490;-55
2022/09/14 00:03:15;;;;;;;46.53;21.17;;;;;;;-145.01;100.00;64805.59;5053142;28;20491;-54
2022/09/14 00:05:40;;;;;;;37.50;21.77;;;;;;;-145.01;100.00;64805.59;5057263;28;20041;-55
2022/09/14 00:08:06;;;;;;;41.53;22.45;;;;;;;-145.01;100.00;64805.59;5057735;28;20035;-55
2022/09/14 00:10:31;;;;;;;37.40;20.08;;;;;;;-145.01;100.00;64805.59;5058370;28;20031;-55
2022/09/14 00:12:59;;;;;;;39.13;19.48;;;;;;;-145.01;100.00;64805.59;5055344;28;20552;-55
2022/09/14 00:15:25;;;;;;;38.03;20.23;;;;;;;-145.01;100.00;64805.59;5049842;28;20078;-55
2022/09/14 00:17:51;;;;;;;37.22;20.27;;;;;;;-145.01;100.00;64805.59;5050217;28;20028;-56
2022/09/14 00:20:16;;;;;;;38.53;21.98;;;;;;;-145.01;100.00;64805.59;5054470;28;20108;-55
2022/09/14 00:22:41;;;;;;;45.83;21.17;;;;;;;-145.01;100.00;64805.59;5050747;28;20060;-55
2022/09/14 00:25:07;;;;;;;36.78;19.90;;;;;;;-145.01;100.00;64805.59;5050267;28;20033;-55
2022/09/14 00:27:33;;;;;;;40.50;20.58;;;;;;;-145.01;100.00;64805.59;5050435;28;20772;-53
2022/09/14 00:29:58;;;;;;;49.65;24.25;;;;;;;-145.01;100.00;64805.59;5056838;28;20048;-56
2022/09/14 00:32:23;;;;;;;29.02;16.42;;;;;;;-145.01;100.00;64805.59;5056531;28;20486;-55
2022/09/14 00:34:49;;;;;;;26.73;15.48;;;;;;;-145.01;100.00;64805.59;5054212;28;20025;-55
2022/09/14 00:37:14;;;;;;;23.65;14.27;;;;;;;-145.01;100.00;64805.59;5056611;28;20086;-55
2022/09/14 00:39:40;;;;;;;21.70;13.05;;;;;;;-145.01;100.00;64805.59;5054098;28;20083;-54
2022/09/14 00:42:05;;;;;;;22.52;14.10;;;;;;;-145.01;100.00;64805.59;5050480;28;20112;-55
2022/09/14 00:44:31;;;;;;;40.40;20.98;;;;;;;-145.01;100.00;64805.59;5050414;28;20459;-55
2022/09/14 00:46:57;;;;;;;69.63;34.45;;;;;;;-145.01;100.00;64805.59;5053907;28;20060;-54
2022/09/14 00:49:31;;;;;;;61.63;30.95;;;;;;;-145.01;100.00;64805.59;5058845;28;20058;-55
2022/09/14 00:52:12;;;;;;;63.28;29.55;;;;;;;-145.01;100.00;64805.59;5052853;28;20025;-56
2022/09/14 00:54:43;;;;;;;58.78;27.77;;;;;;;-145.01;100.00;64805.59;5055597;28;20029;-55
2022/09/14 00:57:08;;;;;;;;;;;;;;;-145.01;100.00;64805.59;5050298;28;20068;-55
2022/09/14 00:59:36;;;;;;;45.17;24.13;;;;;;;-145.01;100.00;64805.59;5081831;28;20001;-56
2022/09/14 01:02:01;;;;;;;47.60;25.48;;;;;;;-145.01;100.00;64805.59;5052323;28;20040;-56
2022/09/14 01:04:26;;;;;;;49.88;25.00;;;;;;;-145.01;100.00;64805.59;5053835;28;20041;-55
2022/09/14 01:06:56;;;;;;;40.03;20.45;;;;;;;-145.01;100.00;64805.59;5063306;28;20463;-55
2022/09/14 01:09:24;;;;;;;41.28;22.83;;;;;;;-145.01;100.00;64805.59;5069542;28;20029;-55
2022/09/14 01:11:55;;;;;;;45.67;22.70;;;;;;;-145.01;100.00;64805.59;5049560;28;20109;-55
2022/09/14 01:14:45;;;;;;;35.15;19.75;;;;;;;-145.01;100.00;64805.59;5049403;28;20116;-56
2022/09/14 01:17:12;;;;;;;32.97;16.88;;;;;;;-145.01;100.00;64805.59;5053764;28;20272;-56
2022/09/14 01:20:05;;;;;;;34.85;18.90;;;;;;;-145.01;100.00;64805.59;5048872;28;20036;-55
2022/09/14 01:22:36;;;;;;;35.08;17.67;;;;;;;-145.01;100.00;64805.59;5053199;28;20040;-56
2022/09/14 01:25:11;;;;;;;34.60;16.67;;;;;;;-145.01;100.00;64805.59;5064676;28;20024;-55
2022/09/14 01:27:42;;;;;;;33.28;17.77;;;;;;;-145.01;100.00;64805.59;5045577;28;20119;-54
2022/09/14 01:30:12;;;;;;;33.65;18.35;;;;;;;-145.01;100.00;64805.59;5067854;28;20175;-54
2022/09/14 01:32:59;;;;;;;32.67;17.65;;;;;;;-145.01;100.00;64805.59;5048635;28;20056;-55
2022/09/14 01:35:26;;;;;;;32.28;18.42;;;;;;;-145.01;100.00;64805.59;5039760;28;20868;-56
2022/09/14 01:37:57;;;;;;;35.95;18.63;;;;;;;-145.01;100.00;64805.59;5057735;28;20467;-56
2022/09/14 01:40:29;;;;;;;31.35;18.25;;;;;;;-145.01;100.00;64805.59;5058305;28;20142;-55
2022/09/14 01:43:02;;;;;;;36.60;19.60;;;;;;;-145.01;100.00;64805.59;5046331;28;20020;-55
2022/09/14 01:45:27;;;;;;;37.25;20.25;;;;;;;-145.01;100.00;64805.59;5052520;28;20086;-56
2022/09/14 01:48:00;;;;;;;39.15;20.23;;;;;;;-145.01;100.00;64805.59;5057734;28;20025;-56
2022/09/14 01:50:49;;;;;;;49.03;21.80;;;;;;;-145.01;100.00;64805.59;5090461;28;20017;-55
2022/09/14 01:53:20;;;;;;;49.30;23.20;;;;;;;-145.01;100.00;64805.59;5064229;28;20364;-55
2022/09/14 01:56:00;;;;;;;45.08;23.40;;;;;;;-145.01;100.00;64805.59;5036114;28;20032;-56
2022/09/14 01:58:43;;;;;;;42.70;23.85;;;;;;;-145.01;100.00;64805.59;5041553;28;20467;-56
2022/09/14 02:01:10;;;;;;;52.58;24.85;;;;;;;-145.01;100.00;64805.59;5052280;28;20032;-56
2022/09/14 02:03:42;;;;;;;40.45;22.13;;;;;;;-145.01;100.00;64805.59;5067968;28;20033;-55
2022/09/14 02:06:11;;;;;;;41.28;21.08;;;;;;;-145.01;100.00;64805.59;5052079;28;20036;-55
2022/09/14 02:08:37;;;;;;;34.65;20.52;;;;;;;-145.01;100.00;64805.59;5039319;28;20025;-55
2022/09/14 02:11:02;;;;;;;37.28;21.55;;;;;;;-145.01;100.00;64805.59;5057806;28;20052;-55
2022/09/14 02:13:28;;;;;;;35.78;20.63;;;;;;;-145.01;100.00;64805.59;5055883;28;20669;-57
2022/09/14 02:15:53;;;;;;;37.90;20.73;;;;;;;-145.01;100.00;64805.59;5060431;28;20036;-57
2022/09/14 02:18:18;;;;;;;37.58;20.75;;;;;;;-145.01;100.00;64805.59;5056558;28;20040;-55
2022/09/14 02:20:47;;;;;;;40.63;21.20;;;;;;;-145.01;100.00;64805.59;5057956;28;20040;-56
2022/09/14 02:23:12;;;;;;;34.95;18.65;;;;;;;-145.01;100.00;64805.59;5056843;28;20033;-56
2022/09/14 02:25:39;;;;;;;39.33;19.95;;;;;;;-145.01;100.00;64805.59;5056375;28;20075;-55
2022/09/14 02:28:05;;;;;;;34.33;19.67;;;;;;;-145.01;100.00;64805.59;5052210;28;20515;-55
2022/09/14 02:30:36;;;;;;;35.88;19.58;;;;;;;-145.01;100.00;64805.59;5053799;28;20041;-55
2022/09/14 02:33:17;;;;;;;32.90;19.00;;;;;;;-145.01;100.00;64805.59;5037984;28;20383;-56
2022/09/14 02:35:48;;;;;;;33.67;19.23;;;;;;;-145.01;100.00;64805.59;5055252;28;20029;-55
2022/09/14 02:38:13;;;;;;;30.85;18.23;;;;;;;-145.01;100.00;64805.59;5068314;28;20041;-55
2022/09/14 02:40:52;;;;;;;33.85;18.60;;;;;;;-145.01;100.00;64805.59;5062406;28;20029;-55
2022/09/14 02:43:36;;;;;;;35.45;19.27;;;;;;;-145.01;100.00;64805.59;5052290;28;20044;-53
2022/09/14 02:46:25;;;;;;;29.40;18.15;;;;;;;-145.01;100.00;64805.59;5052186;28;20036;-56
2022/09/14 02:49:03;;;;;;;37.00;18.73;;;;;;;-145.01;100.00;64805.59;5051358;28;20079;-55
2022/09/14 02:51:35;;;;;;;28.17;15.85;;;;;;;-145.01;100.00;64805.59;5059266;28;20115;-55
2022/09/14 02:54:31;;;;;;;27.75;16.92;;;;;;;-145.01;100.00;64805.59;5051953;28;20338;-55
2022/09/14 02:57:01;;;;;;;24.00;13.82;;;;;;;-145.01;100.00;64805.59;5036913;28;20079;-55
2022/09/14 02:59:27;;;;;;;27.02;17.02;;;;;;;-145.01;100.00;64805.59;5059094;28;20021;-56
2022/09/14 03:01:52;;;;;;;30.83;18.90;;;;;;;-145.01;100.00;64805.59;5084038;28;20100;-56
2022/09/14 03:04:17;;;;;;;31.73;17.17;;;;;;;-145.01;100.00;64805.59;5058242;28;20052;-55
2022/09/14 03:06:43;;;;;;;31.77;18.42;;;;;;;-145.01;100.00;64805.59;5052167;28;20028;-55
2022/09/14 03:09:09;;;;;;;24.33;15.00;;;;;;;-145.01;100.00;64805.59;5056768;28;20033;-55
2022/09/14 03:11:34;;;;;;;36.20;20.02;;;;;;;-145.01;100.00;64805.59;5055387;28;20029;-56
2022/09/14 03:13:59;;;;;;;44.83;21.10;;;;;;;-145.01;100.00;64805.59;5051780;28;20090;-55
2022/09/14 03:16:25;;;;;;;40.70;21.05;;;;;;;-145.01;100.00;64805.59;5057250;28;20032;-56
2022/09/14 03:18:50;;;;;;;41.42;21.67;;;;;;;-145.01;100.00;64805.59;5049808;28;20564;-56
2022/09/14 03:21:16;;;;;;;44.55;23.40;;;;;;;-145.01;100.00;64805.59;5055869;28;20047;-56
2022/09/14 03:23:43;;;;;;;62.05;28.05;;;;;;;-145.01;100.00;64805.59;5055933;28;20799;-56
2022/09/14 03:26:10;;;;;;;65.72;26.90;;;;;;;-145.01;100.00;64805.59;5057048;28;20037;-56
2022/09/14 03:28:36;;;;;;;71.55;28.75;;;;;;;-145.01;100.00;64805.59;5055417;28;20025;-55
2022/09/14 03:31:03;;;;;;;68.22;29.08;;;;;;;-145.01;100.00;64805.59;5055890;28;20024;-55
2022/09/14 03:33:28;;;;;;;56.30;24.95;;;;;;;-145.01;100.00;64805.59;5051323;28;20029;-56
2022/09/14 03:35:53;;;;;;;37.22;20.65;;;;;;;-145.01;100.00;64805.59;5059066;28;20021;-56
2022/09/14 03:38:20;;;;;;;35.78;19.00;;;;;;;-145.01;100.00;64805.59;5056128;28;20033;-56
2022/09/14 03:40:45;;;;;;;31.05;17.63;;;;;;;-145.01;100.00;64805.59;5056871;28;20116;-56
2022/09/14 03:43:11;;;;;;;32.08;18.15;;;;;;;-145.01;100.00;64805.59;5054885;28;20127;-55
2022/09/14 03:45:37;;;;;;;32.10;18.52;;;;;;;-145.01;100.00;64805.59;5054840;28;20021;-55
2022/09/14 03:48:02;;;;;;;30.17;17.30;;;;;;;-145.01;100.00;64805.59;5051467;28;20028;-57
2022/09/14 03:50:28;;;;;;;31.20;18.23;;;;;;;-145.01;100.00;64805.59;5050709;28;20111;-56
2022/09/14 03:52:53;;;;;;;35.22;17.98;;;;;;;-145.01;100.00;64805.59;5051115;28;20078;-55
2022/09/14 03:55:19;;;;;;;31.65;18.17;;;;;;;-145.01;100.00;64805.59;5052319;28;20021;-56
2022/09/14 03:57:44;;;;;;;31.27;16.80;;;;;;;-145.01;100.00;64805.59;5053869;28;20493;-55
2022/09/14 04:00:10;;;;;;;31.48;16.73;;;;;;;-145.01;100.00;64805.59;5057817;28;20033;-55
2022/09/14 04:02:35;;;;;;;34.47;18.50;;;;;;;-145.01;100.00;64805.59;5055299;28;20430;-55
2022/09/14 04:05:01;;;;;;;33.60;17.23;;;;;;;-145.01;100.00;64805.59;5055335;28;20139;-55
2022/09/14 04:07:26;;;;;;;31.30;18.38;;;;;;;-145.01;100.00;64805.59;5056024;28;20064;-57
2022/09/14 04:09:52;;;;;;;30.95;16.40;;;;;;;-145.01;100.00;64805.59;5051789;28;20025;-56
2022/09/14 04:12:17;;;;;;;30.75;17.50;;;;;;;-145.01;100.00;64805.59;5053117;28;20064;-55
2022/09/14 04:14:43;;;;;;;28.80;16.25;;;;;;;-145.01;100.00;64805.59;5057863;28;20379;-57
2022/09/14 04:17:08;;;;;;;27.55;15.75;;;;;;;-145.01;100.00;64805.59;5082643;28;20032;-56
2022/09/14 04:19:40;;;;;;;27.08;13.60;;;;;;;-145.01;100.00;64805.59;5051076;28;20020;-55
2022/09/14 04:22:06;;;;;;;24.17;13.13;;;;;;;-145.01;100.00;64805.59;5052524;28;20097;-55
2022/09/14 04:24:34;;;;;;;25.92;13.63;;;;;;;-145.01;100.00;64805.59;5054332;28;20036;-56
2022/09/14 04:26:59;;;;;;;20.08;10.73;;;;;;;-145.01;100.00;64805.59;5054266;28;20831;-56
2022/09/14 04:29:25;;;;;;;16.27;8.85;;;;;;;-145.01;100.00;64805.59;5052911;28;20039;-55
2022/09/14 04:31:50;;;;;;;16.25;8.57;;;;;;;-145.01;100.00;64805.59;5050477;28;20132;-55
2022/09/14 04:34:16;;;;;;;21.83;10.32;;;;;;;-145.01;100.00;64805.59;5049431;28;20376;-56
2022/09/14 04:36:41;;;;;;;22.40;12.45;;;;;;;-145.01;100.00;64805.59;5055197;28;20028;-55
2022/09/14 04:39:09;;;;;;;23.27;12.80;;;;;;;-145.01;100.00;64805.59;5050151;28;20036;-57
2022/09/14 04:41:35;;;;;;;25.80;15.00;;;;;;;-145.01;100.00;64805.59;5037754;28;20111;-56
2022/09/14 04:44:00;;;;;;;30.30;15.13;;;;;;;-145.01;100.00;64805.59;5055120;28;20059;-55
2022/09/14 04:46:31;;;;;;;24.30;14.18;;;;;;;-145.01;100.00;64805.59;5050087;28;20052;-54
2022/09/14 04:48:56;;;;;;;24.52;12.52;;;;;;;-145.01;100.00;64805.59;5054549;28;20160;-56
2022/09/14 04:51:26;;;;;;;21.92;12.48;;;;;;;-145.01;100.00;64805.59;5064189;28;20029;-56
2022/09/14 04:53:55;;;;;;;;;;;;;;;-145.01;100.00;64805.59;5050839;28;20029;-55
2022/09/14 04:56:21;;;;;;;21.88;10.80;;;;;;;-145.01;100.00;64805.59;5086872;28;19920;-56
2022/09/14 04:58:48;;;;;;;24.17;13.75;;;;;;;-145.01;100.00;64805.59;5057433;28;20021;-55
2022/09/14 05:01:15;;;;;;;19.60;11.73;;;;;;;-145.01;100.00;64805.59;5061265;28;20539;-56
2022/09/14 05:03:41;;;;;;;28.90;13.15;;;;;;;-145.01;100.00;64805.59;5053226;28;20048;-56
2022/09/14 05:06:12;;;;;;;27.15;15.13;;;;;;;-145.01;100.00;64805.59;5051450;28;20033;-57
2022/09/14 05:08:38;;;;;;;26.55;14.43;;;;;;;-145.01;100.00;64805.59;5044277;28;20438;-55
2022/09/14 05:11:05;;;;;;;26.63;14.18;;;;;;;-145.01;100.00;64805.59;5051845;28;20071;-55
2022/09/14 05:13:30;;;;;;;27.83;13.98;;;;;;;-145.01;100.00;64805.59;5053835;28;20108;-55
2022/09/14 05:16:04;;;;;;;24.65;13.63;;;;;;;-145.01;100.00;64805.59;5055362;28;20104;-56
2022/09/14 05:18:30;;;;;;;23.23;13.18;;;;;;;-145.01;100.00;64805.59;5054119;28;20422;-56
2022/09/14 05:20:55;;;;;;;26.25;14.27;;;;;;;-145.01;100.00;64805.59;5056027;28;20380;-56
2022/09/14 05:23:21;;;;;;;24.50;13.30;;;;;;;-145.01;100.00;64805.59;5049756;28;20033;-55
2022/09/14 05:25:52;;;;;;;22.35;13.30;;;;;;;-145.01;100.00;64805.59;5049978;28;20032;-57
2022/09/14 05:28:17;;;;;;;23.55;12.82;;;;;;;-145.01;100.00;64805.59;5049904;28;20062;-56
2022/09/14 05:30:42;;;;;;;23.17;13.20;;;;;;;-145.01;100.00;64805.59;5049510;28;20033;-55
2022/09/14 05:33:08;;;;;;;27.15;13.48;;;;;;;-145.01;100.00;64805.59;5049617;28;20025;-56
2022/09/14 05:35:33;;;;;;;23.38;13.40;;;;;;;-145.01;100.00;64805.59;5053910;28;20028;-56
2022/09/14 05:37:59;;;;;;;23.13;12.35;;;;;;;-145.01;100.00;64805.59;5056925;28;20450;-56
2022/09/14 05:40:24;;;;;;;19.85;13.23;;;;;;;-145.01;100.00;64805.59;5054238;28;20491;-56
2022/09/14 05:42:50;;;;;;;22.38;12.82;;;;;;;-145.01;100.00;64805.59;5057741;28;20299;-54
2022/09/14 05:45:15;;;;;;;20.13;12.68;;;;;;;-145.01;100.00;64805.59;5056719;28;20091;-56
2022/09/14 05:47:40;;;;;;;21.98;10.70;;;;;;;-145.01;100.00;64805.59;5051665;28;20040;-56
2022/09/14 05:50:07;;;;;;;22.98;10.30;;;;;;;-145.01;100.00;64805.59;5053110;28;20084;-55
2022/09/14 05:52:32;;;;;;;22.13;10.20;;;;;;;-145.01;100.00;64805.59;5055018;28;20025;-56
2022/09/14 05:54:58;;;;;;;23.48;10.77;;;;;;;-145.01;100.00;64805.59;5063078;28;20035;-55
2022/09/14 05:57:23;;;;;;;21.27;10.05;;;;;;;-145.01;100.00;64805.59;5056481;28;20021;-55
2022/09/14 05:59:49;;;;;;;24.83;11.05;;;;;;;-145.01;100.00;64805.59;5052849;28;20548;-55
2022/09/14 06:02:14;;;;;;;20.75;11.05;;;;;;;-145.01;100.00;64805.59;5084621;28;20040;-55
2022/09/14 06:04:40;;;;;;;19.67;10.45;;;;;;;-145.01;100.00;64805.59;5063228;28;20621;-55
2022/09/14 06:07:05;;;;;;;18.38;10.90;;;;;;;-145.01;100.00;64805.59;5057506;28;20387;-56
2022/09/14 06:09:30;;;;;;;22.23;11.20;;;;;;;-145.01;100.00;64805.59;5049873;28;20772;-56
2022/09/14 06:11:56;;;;;;;19.40;10.57;;;;;;;-145.01;100.00;64805.59;5050220;28;20031;-55
2022/09/14 06:14:21;;;;;;;21.95;10.15;;;;;;;-145.01;100.00;64805.59;5089039;28;20040;-56
2022/09/14 06:16:47;;;;;;;19.15;10.75;;;;;;;-145.01;100.00;64805.59;5059852;28;20028;-55
2022/09/14 06:19:14;;;;;;;19.10;9.63;;;;;;;-145.01;100.00;64805.59;5056437;28;20028;-56
2022/09/14 06:21:39;;;;;;;18.88;10.07;;;;;;;-145.01;100.00;64805.59;5061787;28;20047;-56
2022/09/14 06:24:05;;;;;;;18.65;9.85;;;;;;;-145.01;100.00;64805.59;5054965;28;20028;-55
2022/09/14 06:26:30;;;;;;;18.08;9.73;;;;;;;-145.01;100.00;64805.59;5057922;28;20028;-55
2022/09/14 06:28:56;;;;;;;22.35;10.73;;;;;;;-145.01;100.00;64805.59;5051915;28;20090;-54
2022/09/14 06:31:21;;;;;;;18.65;9.77;;;;;;;-145.01;100.00;64805.59;5051237;28;20479;-54
2022/09/14 06:33:47;;;;;;;15.02;7.80;;;;;;;-145.01;100.00;64805.59;5057275;28;20033;-55
2022/09/14 06:36:15;;;;;;;16.98;8.73;;;;;;;-145.01;100.00;64805.59;5056462;28;20462;-54
2022/09/14 06:38:40;;;;;;;20.45;8.57;;;;;;;-145.01;100.00;64805.59;5086388;28;20082;-54
2022/09/14 06:41:08;;;;;;;16.25;8.15;;;;;;;-145.01;100.00;64805.59;5055315;28;20029;-54
2022/09/14 06:43:35;;;;;;;16.85;8.02;;;;;;;-145.01;100.00;64805.59;5056506;28;20087;-54
2022/09/14 06:46:15;;;;;;;14.27;7.88;;;;;;;-145.01;100.00;64805.59;5055048;28;20435;-56
2022/09/14 06:48:44;;;;;;;18.48;9.15;;;;;;;-145.01;100.00;64805.59;5052133;28;20045;-54
2022/09/14 06:51:23;;;;;;;16.13;9.02;;;;;;;-145.01;100.00;64805.59;5084816;28;20041;-54
2022/09/14 06:53:49;;;;;;;18.48;9.02;;;;;;;-145.01;100.00;64805.59;5052870;28;20220;-57
2022/09/14 06:56:14;;;;;;;16.88;9.10;;;;;;;-145.01;100.00;64805.59;5056138;28;20116;-57
2022/09/14 06:58:40;;;;;;;19.38;8.60;;;;;;;-145.01;100.00;64805.59;5059099;28;20040;-54
2022/09/14 07:01:07;;;;;;;16.08;8.63;;;;;;;-145.01;100.00;64805.59;5060350;28;20159;-57
2022/09/14 07:03:34;;;;;;;19.95;9.00;;;;;;;-145.01;100.00;64805.59;5059462;28;20048;-54
2022/09/14 07:06:05;;;;;;;21.15;9.35;;;;;;;-145.01;100.00;64805.59;5060108;28;20025;-56
2022/09/14 07:08:32;;;;;;;18.90;8.63;;;;;;;-145.01;100.00;64805.59;5057170;28;20020;-56
2022/09/14 07:10:57;;;;;;;13.60;8.55;;;;;;;-145.01;100.00;64805.59;5052171;28;20029;-55
2022/09/14 07:13:23;;;;;;;16.75;7.80;;;;;;;-145.01;100.00;64805.59;5052365;28;20087;-55
2022/09/14 07:15:49;;;;;;;10.95;6.63;;;;;;;-145.01;100.00;64805.59;5056442;28;20017;-56
2022/09/14 07:18:14;;;;;;;12.18;6.47;;;;;;;-145.01;100.00;64805.59;5057875;28;20081;-56
2022/09/14 07:20:40;;;;;;;10.70;5.72;;;;;;;-145.01;100.00;64805.59;5058630;28;20515;-55
2022/09/14 07:23:05;;;;;;;12.20;6.43;;;;;;;-145.01;100.00;64805.59;5062298;28;20040;-56
2022/09/14 07:25:31;;;;;;;11.30;5.40;;;;;;;-145.01;100.00;64805.59;5059039;28;20028;-55
2022/09/14 07:27:56;;;;;;;11.68;5.22;;;;;;;-145.01;100.00;64805.59;5052141;28;20456;-55
2022/09/14 07:30:23;;;;;;;9.43;4.65;;;;;;;-145.01;100.00;64805.59;5055338;28;20039;-55
2022/09/14 07:32:49;;;;;;;11.07;5.32;;;;;;;-145.01;100.00;64805.59;5052425;28;20048;-56
2022/09/14 07:35:14;;;;;;;9.40;4.18;;;;;;;-145.01;100.00;64805.59;5053022;28;20073;-55
2022/09/14 07:37:40;;;;;;;7.85;4.10;;;;;;;-145.01;100.00;64805.59;5062903;28;20107;-55
2022/09/14 07:40:06;;;;;;;7.97;4.25;;;;;;;-145.01;100.00;64805.59;5056369;28;20021;-55
2022/09/14 07:42:32;;;;;;;7.93;4.43;;;;;;;-145.01;100.00;64805.59;5051399;28;20055;-56
2022/09/14 07:44:57;;;;;;;8.15;3.47;;;;;;;-145.01;100.00;64805.59;5058736;28;20029;-55
2022/09/14 07:47:23;;;;;;;6.85;3.60;;;;;;;-145.01;100.00;64805.59;5055879;28;20066;-55
2022/09/14 07:49:48;;;;;;;5.15;3.15;;;;;;;-145.01;100.00;64805.59;5061061;28;20021;-56
2022/09/14 07:52:17;;;;;;;5.72;3.05;;;;;;;-145.01;100.00;64805.59;5059905;28;20028;-54
2022/09/14 07:54:43;;;;;;;7.25;3.20;;;;;;;-145.01;100.00;64805.59;5055806;28;20087;-54
2022/09/14 07:57:08;;;;;;;8.23;3.47;;;;;;;-145.01;100.00;64805.59;5052503;28;20029;-56
2022/09/14 07:59:34;;;;;;;9.77;3.63;;;;;;;-145.01;100.00;64805.59;5060701;28;20040;-55
2022/09/14 08:01:59;;;;;;;8.35;3.10;;;;;;;-145.01;100.00;64805.59;5057025;28;20028;-56
2022/09/14 08:04:24;;;;;;;6.35;3.33;;;;;;;-145.01;100.00;64805.59;5055918;28;20055;-56
2022/09/14 08:06:50;;;;;;;5.88;2.95;;;;;;;-145.01;100.00;64805.59;5061834;28;20035;-55
2022/09/14 08:09:15;;;;;;;6.07;3.35;;;;;;;-145.01;100.00;64805.59;5049917;28;20032;-56
2022/09/14 08:11:41;;;;;;;6.18;3.28;;;;;;;-145.01;100.00;64805.59;5056215;28;20507;-55
2022/09/14 08:14:10;;;;;;;5.75;2.90;;;;;;;-145.01;100.00;64805.59;5050753;28;20049;-56
2022/09/14 08:16:37;;;;;;;6.20;3.28;;;;;;;-145.01;100.00;64805.59;5054956;28;20033;-56
2022/09/14 08:19:10;;;;;;;6.20;3.90;;;;;;;-145.01;100.00;64805.59;5056101;28;20025;-56
2022/09/14 08:21:36;;;;;;;7.75;3.60;;;;;;;-145.01;100.00;64805.59;5053991;28;20479;-56
2022/09/14 08:24:03;;;;;;;6.22;3.47;;;;;;;-145.01;100.00;64805.59;5051731;28;20025;-55
2022/09/14 08:26:28;;;;;;;8.38;3.65;;;;;;;-145.01;100.00;64805.59;5055329;28;20044;-55
2022/09/14 08:28:54;;;;;;;7.28;3.40;;;;;;;-145.01;100.00;64805.59;5050764;28;20536;-54
2022/09/14 08:31:23;;;;;;;5.80;3.90;;;;;;;-145.01;100.00;64805.59;5050667;28;20135;-55
2022/09/14 08:33:54;;;;;;;8.93;3.57;;;;;;;-145.01;100.00;64805.59;5050131;28;20025;-55
2022/09/14 08:36:20;;;;;;;6.63;3.55;;;;;;;-145.01;100.00;64805.59;5050275;28;20020;-56
2022/09/14 08:38:46;;;;;;;4.63;2.92;;;;;;;-145.01;100.00;64805.59;5049833;28;20094;-55
2022/09/14 08:41:17;;;;;;;8.75;3.33;;;;;;;-145.01;100.00;64805.59;5051314;28;20471;-60
2022/09/14 08:43:43;;;;;;;5.20;2.92;;;;;;;-145.01;100.00;64805.59;5060532;28;20368;-55
2022/09/14 08:46:14;;;;;;;8.02;2.97;;;;;;;-145.01;100.00;64805.59;5043901;28;20021;-55
2022/09/14 08:48:43;;;;;;;4.95;2.90;;;;;;;-145.01;100.00;64805.59;5047768;28;20032;-55
2022/09/14 08:51:09;;;;;;;5.00;3.40;;;;;;;-145.01;100.00;64805.59;5052686;28;20476;-55
2022/09/14 08:53:36;;;;;;;7.70;3.38;;;;;;;-145.01;100.00;64805.59;5055441;28;20041;-56
2022/09/14 08:56:05;;;;;;;7.35;3.35;;;;;;;-145.01;100.00;64805.59;5054884;28;20407;-55
2022/09/14 08:58:58;;;;;;;7.28;3.47;;;;;;;-145.01;100.00;64805.59;5044860;28;20121;-55
2022/09/14 09:01:39;;;;;;;9.00;3.60;;;;;;;-145.01;100.00;64805.59;5049983;28;20028;-55
2022/09/14 09:04:14;;;;;;;9.75;4.10;;;;;;;-145.01;100.00;64805.59;5085026;28;20119;-55
2022/09/14 09:07:01;;;;;;;9.00;3.92;;;;;;;-145.01;100.00;64805.59;5053242;28;20025;-55
2022/09/14 09:09:32;;;;;;;8.52;4.32;;;;;;;-145.01;100.00;64805.59;5061983;28;20028;-55
2022/09/14 09:11:58;;;;;;;8.07;4.70;;;;;;;-145.01;100.00;64805.59;5050635;28;20028;-55
2022/09/14 09:14:30;;;;;;;13.98;5.18;;;;;;;-145.01;100.00;64805.59;5053154;28;20142;-55
2022/09/14 09:16:57;;;;;;;9.20;3.85;;;;;;;-145.01;100.00;64805.59;5048761;28;20112;-55
2022/09/14 09:19:34;;;;;;;7.78;4.30;;;;;;;-145.01;100.00;64805.59;5049478;28;20368;-55
2022/09/14 09:22:02;;;;;;;6.55;4.43;;;;;;;-145.01;100.00;64805.59;5069966;28;20032;-54
2022/09/14 09:24:31;;;;;;;14.75;4.47;;;;;;;-145.01;100.00;64805.59;5057327;28;20040;-55
2022/09/14 09:26:57;;;;;;;8.05;4.45;;;;;;;-145.01;100.00;64805.59;5052884;28;20050;-56
2022/09/14 09:29:22;;;;;;;10.18;4.65;;;;;;;-145.01;100.00;64805.59;5049954;28;20033;-54
2022/09/14 09:31:51;;;;;;;8.00;4.57;;;;;;;-145.01;100.00;64805.59;5053216;28;20475;-55
2022/09/14 09:34:21;;;;;;;11.02;4.50;;;;;;;-145.01;100.00;64805.59;5058195;28;20052;-55
2022/09/14 09:36:47;;;;;;;11.65;5.60;;;;;;;-145.01;100.00;64805.59;5033149;28;20078;-55
2022/09/14 09:39:13;;;;;;;8.20;5.55;;;;;;;-145.01;100.00;64805.59;5049644;28;20025;-57
2022/09/14 09:41:44;;;;;;;10.25;5.63;;;;;;;-145.01;100.00;64805.59;5052012;28;20400;-57
2022/09/14 09:44:09;;;;;;;11.15;6.05;;;;;;;-145.01;100.00;64805.59;5053076;28;20111;-56
2022/09/14 09:46:54;;;;;;;12.98;7.00;;;;;;;-145.01;100.00;64805.59;5053193;28;20127;-57
2022/09/14 09:49:24;;;;;;;12.75;6.65;;;;;;;-145.01;100.00;64805.59;5050373;28;20094;-57
2022/09/14 09:51:50;;;;;;;11.27;7.30;;;;;;;-145.01;100.00;64805.59;5062879;28;20021;-56
2022/09/14 09:54:15;;;;;;;18.35;7.32;;;;;;;-145.01;100.00;64805.59;5059337;28;20025;-56
2022/09/14 09:56:56;;;;;;;12.48;7.68;;;;;;;-145.01;100.00;64805.59;5053493;28;20065;-56
2022/09/14 09:59:39;;;;;;;17.40;8.75;;;;;;;-145.01;100.00;64805.59;5055276;28;20453;-55
2022/09/14 10:02:27;;;;;;;13.68;7.85;;;;;;;-145.01;100.00;64805.59;5070468;28;20466;-56
2022/09/14 10:05:24;;;;;;;14.55;7.82;;;;;;;-145.01;100.00;64805.59;5059152;28;20045;-56
2022/09/14 10:07:49;;;;;;;14.25;8.80;;;;;;;-145.01;100.00;64805.59;5052912;28;20069;-57
2022/09/14 10:10:16;;;;;;;15.50;9.85;;;;;;;-145.01;100.00;64805.59;5053502;28;20068;-56
2022/09/14 10:13:20;;;;;;;14.50;8.52;;;;;;;-145.01;100.00;64805.59;5054248;28;20033;-56
2022/09/14 10:15:45;;;;;;;14.38;9.30;;;;;;;-145.01;100.00;64805.59;5046411;28;20036;-56
2022/09/14 10:18:11;;;;;;;19.60;10.00;;;;;;;-145.01;100.00;64805.59;5057248;28;20048;-56
2022/09/14 10:20:43;;;;;;;14.38;9.57;;;;;;;-145.01;100.00;64805.59;5059621;28;20036;-56
2022/09/14 10:23:20;;;;;;;20.92;10.55;;;;;;;-145.01;100.00;64805.59;5053827;28;20029;-57
2022/09/14 10:25:50;;;;;;;22.15;11.15;;;;;;;-145.01;100.00;64805.59;5052183;28;20499;-58
2022/09/14 10:28:36;;;;;;;18.90;11.98;;;;;;;-145.01;100.00;64805.59;5091759;28;20119;-55
2022/09/14 10:31:14;;;;;;;23.10;12.82;;;;;;;-145.01;100.00;64805.59;5060307;28;20032;-56
2022/09/14 10:33:40;;;;;;;32.85;14.48;;;;;;;-145.01;100.00;64805.59;5055753;28;20382;-54
2022/09/14 10:36:22;;;;;;;27.30;14.07;;;;;;;-145.01;100.00;64805.59;5058089;28;20108;-55
2022/09/14 10:39:01;;;;;;;24.48;13.27;;;;;;;-145.01;100.00;64805.59;5061706;28;20060;-54
2022/09/14 10:41:38;;;;;;;22.33;13.60;;;;;;;-145.01;100.00;64805.59;5053015;28;20033;-55
2022/09/14 10:44:28;;;;;;;27.98;14.75;;;;;;;-145.01;100.00;64805.59;5054479;28;20024;-54
2022/09/14 10:46:53;;;;;;;23.80;13.45;;;;;;;-145.01;100.00;64805.59;5052455;28;20028;-54
2022/09/14 10:49:28;;;;;;;23.80;14.27;;;;;;;-145.01;100.00;64805.59;5062468;28;20491;-54
2022/09/14 10:52:02;;;;;;;30.45;14.00;;;;;;;-145.01;100.00;64805.59;5058954;28;20483;-54
2022/09/14 10:54:30;;;;;;;27.23;13.75;;;;;;;-145.01;100.00;64805.59;5084475;28;20033;-56
2022/09/14 10:57:16;;;;;;;20.58;13.13;;;;;;;-145.01;100.00;64805.59;5052436;28;20036;-56
2022/09/14 11:00:03;;;;;;;23.48;13.52;;;;;;;-145.01;100.00;64805.59;5055749;28;20064;-55
2022/09/14 11:02:58;;;;;;;22.73;12.82;;;;;;;-145.01;100.00;64805.59;5054130;28;20395;-56
2022/09/14 11:05:33;;;;;;;22.88;12.23;;;;;;;-145.01;100.00;64805.59;5054509;28;20033;-56
2022/09/14 11:08:10;;;;;;;15.98;10.40;;;;;;;-145.01;100.00;64805.59;5056516;28;20025;-56